sensor_id;sensor_type;location;lat;lon;timestamp;P1;durP1;ratioP1;P2;durP2;ratioP2
21681;SDS011;11002;48.256;10.084;2023-01-06T00:00:38;2.67;;;1.20;;
21681;SDS011;11002;48.256;10.084;2023-01-06T00:03:06;1.48;;;1.38;;
21681;SDS011;11002;48.256;10.084;2023-01-06T00:05:34;1.60;;;1.50;;
21681;SDS011;11002;48.256;10.084;2023-01-06T00:08:01;1.40;;;1.20;;
21681;SDS011;11002;48.256;10.084;2023-01-06T00:10:29;2.00;;;1.85;;
21681;SDS011;11002;48.256;10.084;2023-01-06T00:12:56;1.98;;;1.80;;
21681;SDS011;11002;48.256;10.084;2023-01-06T00:15:24;2.47;;;1.40;;
21681;SDS011;11002;48.256;10.084;2023-01-06T00:17:52;2.10;;;1.90;;
21681;SDS011;11002;48.256;10.084;2023-01-06T00:20:20;1.70;;;1.60;;
21681;SDS011;11002;48.256;10.084;2023-01-06T00:22:47;1.58;;;1.48;;
21681;SDS011;11002;48.256;10.084;2023-01-06T00:25:14;1.58;;;1.48;;
21681;SDS011;11002;48.256;10.084;2023-01-06T00:27:42;2.00;;;1.80;;
21681;SDS011;11002;48.256;10.084;2023-01-06T00:30:10;1.90;;;1.80;;
21681;SDS011;11002;48.256;10.084;2023-01-06T00:32:38;1.70;;;1.60;;
21681;SDS011;11002;48.256;10.084;2023-01-06T00:35:07;2.38;;;2.17;;
21681;SDS011;11002;48.256;10.084;2023-01-06T00:37:35;1.83;;;1.73;;
21681;SDS011;11002;48.256;10.084;2023-01-06T00:40:02;1.95;;;1.75;;
21681;SDS011;11002;48.256;10.084;2023-01-06T00:42:30;1.92;;;1.67;;
21681;SDS011;11002;48.256;10.084;2023-01-06T00:44:58;2.30;;;2.10;;
21681;SDS011;11002;48.256;10.084;2023-01-06T00:47:25;1.90;;;1.75;;
21681;SDS011;11002;48.256;10.084;2023-01-06T00:49:53;1.98;;;1.88;;
21681;SDS011;11002;48.256;10.084;2023-01-06T00:52:22;2.30;;;2.10;;
21681;SDS011;11002;48.256;10.084;2023-01-06T00:54:50;2.97;;;2.20;;
21681;SDS011;11002;48.256;10.084;2023-01-06T00:57:17;2.92;;;2.38;;
21681;SDS011;11002;48.256;10.084;2023-01-06T00:59:44;3.35;;;2.20;;
21681;SDS011;11002;48.256;10.084;2023-01-06T01:02:12;3.53;;;2.78;;
21681;SDS011;11002;48.256;10.084;2023-01-06T01:04:40;3.55;;;2.92;;
21681;SDS011;11002;48.256;10.084;2023-01-06T01:07:09;4.15;;;3.28;;
21681;SDS011;11002;48.256;10.084;2023-01-06T01:09:39;3.08;;;2.80;;
21681;SDS011;11002;48.256;10.084;2023-01-06T01:12:08;4.18;;;3.78;;
21681;SDS011;11002;48.256;10.084;2023-01-06T01:14:38;4.55;;;3.65;;
21681;SDS011;11002;48.256;10.084;2023-01-06T01:17:08;4.75;;;3.30;;
21681;SDS011;11002;48.256;10.084;2023-01-06T01:19:37;3.47;;;3.08;;
21681;SDS011;11002;48.256;10.084;2023-01-06T01:22:04;6.82;;;3.60;;
21681;SDS011;11002;48.256;10.084;2023-01-06T01:24:32;3.33;;;3.03;;
21681;SDS011;11002;48.256;10.084;2023-01-06T01:27:01;3.40;;;3.10;;
21681;SDS011;11002;48.256;10.084;2023-01-06T01:29:28;3.13;;;2.92;;
21681;SDS011;11002;48.256;10.084;2023-01-06T01:31:56;3.72;;;3.25;;
21681;SDS011;11002;48.256;10.084;2023-01-06T01:34:24;4.03;;;3.63;;
21681;SDS011;11002;48.256;10.084;2023-01-06T01:36:52;4.18;;;3.70;;
21681;SDS011;11002;48.256;10.084;2023-01-06T01:39:21;4.25;;;3.72;;
21681;SDS011;11002;48.256;10.084;2023-01-06T01:41:50;4.45;;;3.72;;
21681;SDS011;11002;48.256;10.084;2023-01-06T01:47:23;4.20;;;3.80;;
21681;SDS011;11002;48.256;10.084;2023-01-06T01:49:56;4.88;;;4.05;;
21681;SDS011;11002;48.256;10.084;2023-01-06T01:52:26;4.13;;;3.72;;
21681;SDS011;11002;48.256;10.084;2023-01-06T01:54:54;3.70;;;3.40;;
21681;SDS011;11002;48.256;10.084;2023-01-06T01:57:24;4.07;;;3.40;;
21681;SDS011;11002;48.256;10.084;2023-01-06T01:59:56;3.60;;;3.30;;
21681;SDS011;11002;48.256;10.084;2023-01-06T02:02:25;3.85;;;3.25;;
21681;SDS011;11002;48.256;10.084;2023-01-06T02:04:55;3.60;;;3.05;;
21681;SDS011;11002;48.256;10.084;2023-01-06T02:07:24;4.25;;;3.40;;
21681;SDS011;11002;48.256;10.084;2023-01-06T02:09:58;7.80;;;4.50;;
21681;SDS011;11002;48.256;10.084;2023-01-06T02:12:30;5.60;;;4.30;;
21681;SDS011;11002;48.256;10.084;2023-01-06T02:14:59;6.50;;;4.13;;
21681;SDS011;11002;48.256;10.084;2023-01-06T02:17:36;5.03;;;4.05;;
21681;SDS011;11002;48.256;10.084;2023-01-06T02:20:21;4.15;;;3.80;;
21681;SDS011;11002;48.256;10.084;2023-01-06T02:23:22;5.20;;;3.83;;
21681;SDS011;11002;48.256;10.084;2023-01-06T02:26:12;6.30;;;4.50;;
21681;SDS011;11002;48.256;10.084;2023-01-06T02:29:20;5.82;;;4.50;;
21681;SDS011;11002;48.256;10.084;2023-01-06T02:32:16;6.75;;;4.63;;
21681;SDS011;11002;48.256;10.084;2023-01-06T02:35:01;5.53;;;4.82;;
21681;SDS011;11002;48.256;10.084;2023-01-06T02:37:42;5.10;;;4.60;;
21681;SDS011;11002;48.256;10.084;2023-01-06T02:40:20;7.07;;;4.72;;
21681;SDS011;11002;48.256;10.084;2023-01-06T02:43:05;7.22;;;4.47;;
21681;SDS011;11002;48.256;10.084;2023-01-06T02:45:43;5.32;;;4.43;;
21681;SDS011;11002;48.256;10.084;2023-01-06T02:48:22;5.10;;;4.60;;
21681;SDS011;11002;48.256;10.084;2023-01-06T02:50:55;5.28;;;4.78;;
21681;SDS011;11002;48.256;10.084;2023-01-06T02:53:30;4.95;;;4.45;;
21681;SDS011;11002;48.256;10.084;2023-01-06T02:56:05;4.60;;;3.97;;
21681;SDS011;11002;48.256;10.084;2023-01-06T02:58:34;4.63;;;3.60;;
21681;SDS011;11002;48.256;10.084;2023-01-06T03:01:12;6.05;;;4.28;;
21681;SDS011;11002;48.256;10.084;2023-01-06T03:03:44;4.82;;;4.22;;
21681;SDS011;11002;48.256;10.084;2023-01-06T03:06:16;5.47;;;4.65;;
21681;SDS011;11002;48.256;10.084;2023-01-06T03:08:47;6.45;;;4.70;;
21681;SDS011;11002;48.256;10.084;2023-01-06T03:11:18;5.80;;;5.20;;
21681;SDS011;11002;48.256;10.084;2023-01-06T03:13:48;5.30;;;4.72;;
21681;SDS011;11002;48.256;10.084;2023-01-06T03:16:18;6.28;;;4.78;;
21681;SDS011;11002;48.256;10.084;2023-01-06T03:18:48;6.00;;;5.40;;
21681;SDS011;11002;48.256;10.084;2023-01-06T03:21:20;8.48;;;5.75;;
21681;SDS011;11002;48.256;10.084;2023-01-06T03:23:51;9.45;;;5.22;;
21681;SDS011;11002;48.256;10.084;2023-01-06T03:26:19;6.10;;;5.07;;
21681;SDS011;11002;48.256;10.084;2023-01-06T03:28:46;5.80;;;4.45;;
21681;SDS011;11002;48.256;10.084;2023-01-06T03:31:19;6.13;;;4.60;;
21681;SDS011;11002;48.256;10.084;2023-01-06T03:34:00;4.95;;;4.03;;
21681;SDS011;11002;48.256;10.084;2023-01-06T03:36:38;5.70;;;4.20;;
21681;SDS011;11002;48.256;10.084;2023-01-06T03:39:13;4.03;;;3.45;;
21681;SDS011;11002;48.256;10.084;2023-01-06T03:41:48;4.40;;;3.97;;
21681;SDS011;11002;48.256;10.084;2023-01-06T03:44:39;4.50;;;3.70;;
21681;SDS011;11002;48.256;10.084;2023-01-06T03:47:13;5.15;;;3.80;;
21681;SDS011;11002;48.256;10.084;2023-01-06T03:49:50;4.00;;;3.60;;
21681;SDS011;11002;48.256;10.084;2023-01-06T03:52:22;5.30;;;4.72;;
21681;SDS011;11002;48.256;10.084;2023-01-06T03:54:55;5.15;;;4.38;;
21681;SDS011;11002;48.256;10.084;2023-01-06T03:57:25;12.60;;;6.43;;
21681;SDS011;11002;48.256;10.084;2023-01-06T03:59:57;7.15;;;5.22;;
21681;SDS011;11002;48.256;10.084;2023-01-06T04:02:38;6.05;;;5.10;;
21681;SDS011;11002;48.256;10.084;2023-01-06T04:05:15;10.68;;;4.75;;
21681;SDS011;11002;48.256;10.084;2023-01-06T04:07:45;5.80;;;5.18;;
21681;SDS011;11002;48.256;10.084;2023-01-06T04:10:15;6.70;;;5.03;;
21681;SDS011;11002;48.256;10.084;2023-01-06T04:12:46;6.22;;;5.63;;
21681;SDS011;11002;48.256;10.084;2023-01-06T04:15:17;8.13;;;5.00;;
21681;SDS011;11002;48.256;10.084;2023-01-06T04:17:47;6.40;;;5.18;;
21681;SDS011;11002;48.256;10.084;2023-01-06T04:20:19;5.78;;;5.03;;
21681;SDS011;11002;48.256;10.084;2023-01-06T04:22:51;6.55;;;4.80;;
21681;SDS011;11002;48.256;10.084;2023-01-06T04:25:19;6.68;;;4.25;;
21681;SDS011;11002;48.256;10.084;2023-01-06T04:27:48;5.20;;;4.40;;
21681;SDS011;11002;48.256;10.084;2023-01-06T04:30:16;5.22;;;4.25;;
21681;SDS011;11002;48.256;10.084;2023-01-06T04:32:44;4.95;;;4.47;;
21681;SDS011;11002;48.256;10.084;2023-01-06T04:35:11;5.55;;;4.38;;
21681;SDS011;11002;48.256;10.084;2023-01-06T04:37:40;5.43;;;4.68;;
21681;SDS011;11002;48.256;10.084;2023-01-06T04:40:08;6.93;;;4.82;;
21681;SDS011;11002;48.256;10.084;2023-01-06T04:42:38;5.53;;;4.53;;
21681;SDS011;11002;48.256;10.084;2023-01-06T04:45:23;5.70;;;5.10;;
21681;SDS011;11002;48.256;10.084;2023-01-06T04:47:50;7.07;;;5.90;;
21681;SDS011;11002;48.256;10.084;2023-01-06T04:50:18;8.00;;;5.75;;
21681;SDS011;11002;48.256;10.084;2023-01-06T04:52:46;6.15;;;4.70;;
21681;SDS011;11002;48.256;10.084;2023-01-06T04:55:14;6.85;;;5.80;;
21681;SDS011;11002;48.256;10.084;2023-01-06T04:57:41;7.82;;;6.22;;
21681;SDS011;11002;48.256;10.084;2023-01-06T05:00:09;9.00;;;7.00;;
21681;SDS011;11002;48.256;10.084;2023-01-06T05:02:37;9.73;;;6.40;;
21681;SDS011;11002;48.256;10.084;2023-01-06T05:05:05;10.52;;;6.28;;
21681;SDS011;11002;48.256;10.084;2023-01-06T05:07:33;8.00;;;6.60;;
21681;SDS011;11002;48.256;10.084;2023-01-06T05:10:02;14.30;;;11.13;;
21681;SDS011;11002;48.256;10.084;2023-01-06T05:12:30;9.85;;;8.05;;
21681;SDS011;11002;48.256;10.084;2023-01-06T05:14:58;12.95;;;9.60;;
21681;SDS011;11002;48.256;10.084;2023-01-06T05:17:25;9.88;;;7.80;;
21681;SDS011;11002;48.256;10.084;2023-01-06T05:19:53;9.63;;;7.55;;
21681;SDS011;11002;48.256;10.084;2023-01-06T05:22:23;5.97;;;5.13;;
21681;SDS011;11002;48.256;10.084;2023-01-06T05:24:50;6.05;;;5.10;;
21681;SDS011;11002;48.256;10.084;2023-01-06T05:27:19;5.20;;;4.70;;
21681;SDS011;11002;48.256;10.084;2023-01-06T05:29:47;6.25;;;5.30;;
21681;SDS011;11002;48.256;10.084;2023-01-06T05:32:14;6.30;;;5.28;;
21681;SDS011;11002;48.256;10.084;2023-01-06T05:34:41;5.88;;;5.28;;
21681;SDS011;11002;48.256;10.084;2023-01-06T05:37:09;8.63;;;7.05;;
21681;SDS011;11002;48.256;10.084;2023-01-06T05:39:36;5.55;;;4.85;;
21681;SDS011;11002;48.256;10.084;2023-01-06T05:42:03;6.53;;;5.20;;
21681;SDS011;11002;48.256;10.084;2023-01-06T05:44:32;7.75;;;5.90;;
21681;SDS011;11002;48.256;10.084;2023-01-06T05:46:59;6.10;;;5.40;;
21681;SDS011;11002;48.256;10.084;2023-01-06T05:49:27;6.97;;;5.45;;
21681;SDS011;11002;48.256;10.084;2023-01-06T05:51:54;6.80;;;5.25;;
21681;SDS011;11002;48.256;10.084;2023-01-06T05:54:21;6.55;;;4.97;;
21681;SDS011;11002;48.256;10.084;2023-01-06T05:56:49;7.35;;;5.80;;
21681;SDS011;11002;48.256;10.084;2023-01-06T05:59:16;6.53;;;5.53;;
21681;SDS011;11002;48.256;10.084;2023-01-06T06:01:45;6.70;;;4.90;;
21681;SDS011;11002;48.256;10.084;2023-01-06T06:04:12;7.38;;;4.63;;
21681;SDS011;11002;48.256;10.084;2023-01-06T06:06:40;5.88;;;5.03;;
21681;SDS011;11002;48.256;10.084;2023-01-06T06:09:07;5.78;;;4.78;;
21681;SDS011;11002;48.256;10.084;2023-01-06T06:11:35;6.45;;;5.43;;
21681;SDS011;11002;48.256;10.084;2023-01-06T06:14:02;7.45;;;5.45;;
21681;SDS011;11002;48.256;10.084;2023-01-06T06:16:29;8.73;;;6.10;;
21681;SDS011;11002;48.256;10.084;2023-01-06T06:18:58;8.70;;;6.32;;
21681;SDS011;11002;48.256;10.084;2023-01-06T06:21:26;15.95;;;6.70;;
21681;SDS011;11002;48.256;10.084;2023-01-06T06:23:55;14.85;;;7.30;;
21681;SDS011;11002;48.256;10.084;2023-01-06T06:26:23;33.85;;;8.43;;
21681;SDS011;11002;48.256;10.084;2023-01-06T06:28:52;16.75;;;7.65;;
21681;SDS011;11002;48.256;10.084;2023-01-06T06:31:20;27.00;;;7.57;;
21681;SDS011;11002;48.256;10.084;2023-01-06T06:33:49;32.85;;;7.32;;
21681;SDS011;11002;48.256;10.084;2023-01-06T06:36:18;27.40;;;7.40;;
21681;SDS011;11002;48.256;10.084;2023-01-06T06:38:46;17.45;;;7.45;;
21681;SDS011;11002;48.256;10.084;2023-01-06T06:41:15;16.30;;;6.43;;
21681;SDS011;11002;48.256;10.084;2023-01-06T06:43:42;20.33;;;6.25;;
21681;SDS011;11002;48.256;10.084;2023-01-06T06:46:10;11.27;;;6.00;;
21681;SDS011;11002;48.256;10.084;2023-01-06T06:48:38;7.35;;;5.32;;
21681;SDS011;11002;48.256;10.084;2023-01-06T06:51:06;7.47;;;5.72;;
21681;SDS011;11002;48.256;10.084;2023-01-06T06:53:37;8.07;;;6.15;;
21681;SDS011;11002;48.256;10.084;2023-01-06T06:56:05;8.10;;;5.68;;
21681;SDS011;11002;48.256;10.084;2023-01-06T06:58:34;7.20;;;5.70;;
21681;SDS011;11002;48.256;10.084;2023-01-06T07:01:04;8.30;;;6.40;;
21681;SDS011;11002;48.256;10.084;2023-01-06T07:03:32;8.38;;;6.70;;
21681;SDS011;11002;48.256;10.084;2023-01-06T07:06:00;9.02;;;6.70;;
21681;SDS011;11002;48.256;10.084;2023-01-06T07:08:29;7.70;;;5.88;;
21681;SDS011;11002;48.256;10.084;2023-01-06T07:10:59;6.78;;;5.13;;
21681;SDS011;11002;48.256;10.084;2023-01-06T07:13:27;6.60;;;5.05;;
21681;SDS011;11002;48.256;10.084;2023-01-06T07:15:55;7.05;;;5.47;;
21681;SDS011;11002;48.256;10.084;2023-01-06T07:18:23;6.35;;;5.53;;
21681;SDS011;11002;48.256;10.084;2023-01-06T07:20:51;7.97;;;5.43;;
21681;SDS011;11002;48.256;10.084;2023-01-06T07:23:19;7.68;;;5.70;;
21681;SDS011;11002;48.256;10.084;2023-01-06T07:25:49;7.15;;;5.45;;
21681;SDS011;11002;48.256;10.084;2023-01-06T07:28:19;7.07;;;5.50;;
21681;SDS011;11002;48.256;10.084;2023-01-06T07:30:47;5.78;;;5.22;;
21681;SDS011;11002;48.256;10.084;2023-01-06T07:33:15;10.25;;;5.07;;
21681;SDS011;11002;48.256;10.084;2023-01-06T07:35:42;7.32;;;5.88;;
21681;SDS011;11002;48.256;10.084;2023-01-06T07:38:10;9.02;;;6.25;;
21681;SDS011;11002;48.256;10.084;2023-01-06T07:40:37;7.18;;;6.00;;
21681;SDS011;11002;48.256;10.084;2023-01-06T07:43:05;9.05;;;6.57;;
21681;SDS011;11002;48.256;10.084;2023-01-06T07:45:36;10.40;;;7.60;;
21681;SDS011;11002;48.256;10.084;2023-01-06T07:48:04;9.00;;;6.20;;
21681;SDS011;11002;48.256;10.084;2023-01-06T07:50:31;6.90;;;5.78;;
21681;SDS011;11002;48.256;10.084;2023-01-06T07:52:59;9.02;;;6.65;;
21681;SDS011;11002;48.256;10.084;2023-01-06T07:55:28;8.13;;;6.72;;
21681;SDS011;11002;48.256;10.084;2023-01-06T07:57:56;9.15;;;7.00;;
21681;SDS011;11002;48.256;10.084;2023-01-06T08:00:24;8.40;;;6.68;;
21681;SDS011;11002;48.256;10.084;2023-01-06T08:02:53;9.88;;;6.95;;
21681;SDS011;11002;48.256;10.084;2023-01-06T08:05:20;7.55;;;6.00;;
21681;SDS011;11002;48.256;10.084;2023-01-06T08:07:47;7.70;;;5.93;;
21681;SDS011;11002;48.256;10.084;2023-01-06T08:10:15;7.53;;;6.22;;
21681;SDS011;11002;48.256;10.084;2023-01-06T08:12:42;8.00;;;6.57;;
21681;SDS011;11002;48.256;10.084;2023-01-06T08:15:10;11.88;;;6.53;;
21681;SDS011;11002;48.256;10.084;2023-01-06T08:17:37;7.78;;;6.32;;
21681;SDS011;11002;48.256;10.084;2023-01-06T08:20:07;8.63;;;6.35;;
21681;SDS011;11002;48.256;10.084;2023-01-06T08:22:36;7.38;;;5.93;;
21681;SDS011;11002;48.256;10.084;2023-01-06T08:25:03;7.50;;;5.53;;
21681;SDS011;11002;48.256;10.084;2023-01-06T08:27:33;8.50;;;6.30;;
21681;SDS011;11002;48.256;10.084;2023-01-06T08:30:00;8.30;;;5.88;;
21681;SDS011;11002;48.256;10.084;2023-01-06T08:32:29;8.60;;;6.22;;
21681;SDS011;11002;48.256;10.084;2023-01-06T08:34:56;7.78;;;6.75;;
21681;SDS011;11002;48.256;10.084;2023-01-06T08:37:25;7.75;;;5.82;;
21681;SDS011;11002;48.256;10.084;2023-01-06T08:39:54;8.10;;;6.05;;
21681;SDS011;11002;48.256;10.084;2023-01-06T08:42:21;8.73;;;6.45;;
21681;SDS011;11002;48.256;10.084;2023-01-06T08:44:48;9.93;;;5.97;;
21681;SDS011;11002;48.256;10.084;2023-01-06T08:47:16;9.20;;;6.90;;
21681;SDS011;11002;48.256;10.084;2023-01-06T08:49:43;9.20;;;5.95;;
21681;SDS011;11002;48.256;10.084;2023-01-06T08:52:11;9.55;;;6.32;;
21681;SDS011;11002;48.256;10.084;2023-01-06T08:54:39;8.80;;;5.75;;
21681;SDS011;11002;48.256;10.084;2023-01-06T08:57:07;8.43;;;5.55;;
21681;SDS011;11002;48.256;10.084;2023-01-06T08:59:35;6.95;;;5.50;;
21681;SDS011;11002;48.256;10.084;2023-01-06T09:02:03;8.05;;;5.78;;
21681;SDS011;11002;48.256;10.084;2023-01-06T09:04:31;8.75;;;6.15;;
21681;SDS011;11002;48.256;10.084;2023-01-06T09:06:59;7.75;;;5.93;;
21681;SDS011;11002;48.256;10.084;2023-01-06T09:09:26;8.75;;;5.63;;
21681;SDS011;11002;48.256;10.084;2023-01-06T09:11:55;8.32;;;6.13;;
21681;SDS011;11002;48.256;10.084;2023-01-06T09:14:22;7.30;;;5.43;;
21681;SDS011;11002;48.256;10.084;2023-01-06T09:16:50;7.65;;;5.43;;
21681;SDS011;11002;48.256;10.084;2023-01-06T09:19:17;7.18;;;5.50;;
21681;SDS011;11002;48.256;10.084;2023-01-06T09:21:45;7.03;;;5.38;;
21681;SDS011;11002;48.256;10.084;2023-01-06T09:24:13;7.38;;;5.70;;
21681;SDS011;11002;48.256;10.084;2023-01-06T09:26:41;7.00;;;5.25;;
21681;SDS011;11002;48.256;10.084;2023-01-06T09:29:10;6.40;;;4.68;;
21681;SDS011;11002;48.256;10.084;2023-01-06T09:31:38;6.30;;;4.78;;
21681;SDS011;11002;48.256;10.084;2023-01-06T09:34:05;5.45;;;4.68;;
21681;SDS011;11002;48.256;10.084;2023-01-06T09:36:34;5.38;;;4.38;;
21681;SDS011;11002;48.256;10.084;2023-01-06T09:39:01;5.25;;;4.60;;
21681;SDS011;11002;48.256;10.084;2023-01-06T09:44:34;7.03;;;5.22;;
21681;SDS011;11002;48.256;10.084;2023-01-06T09:47:07;5.55;;;4.60;;
21681;SDS011;11002;48.256;10.084;2023-01-06T09:49:39;6.55;;;4.57;;
21681;SDS011;11002;48.256;10.084;2023-01-06T09:52:14;6.43;;;4.67;;
21681;SDS011;11002;48.256;10.084;2023-01-06T09:54:50;6.47;;;4.90;;
21681;SDS011;11002;48.256;10.084;2023-01-06T09:57:21;5.03;;;4.00;;
21681;SDS011;11002;48.256;10.084;2023-01-06T09:59:55;6.30;;;5.20;;
21681;SDS011;11002;48.256;10.084;2023-01-06T10:02:28;6.50;;;5.10;;
21681;SDS011;11002;48.256;10.084;2023-01-06T10:05:01;5.50;;;4.60;;
21681;SDS011;11002;48.256;10.084;2023-01-06T10:07:31;5.90;;;4.90;;
21681;SDS011;11002;48.256;10.084;2023-01-06T10:10:13;5.90;;;4.75;;
21681;SDS011;11002;48.256;10.084;2023-01-06T10:12:47;6.15;;;5.55;;
21681;SDS011;11002;48.256;10.084;2023-01-06T10:15:28;5.18;;;4.50;;
21681;SDS011;11002;48.256;10.084;2023-01-06T10:18:03;4.40;;;4.00;;
21681;SDS011;11002;48.256;10.084;2023-01-06T10:20:49;4.28;;;3.88;;
21681;SDS011;11002;48.256;10.084;2023-01-06T10:23:31;4.22;;;3.72;;
21681;SDS011;11002;48.256;10.084;2023-01-06T10:26:20;3.92;;;3.63;;
21681;SDS011;11002;48.256;10.084;2023-01-06T10:28:53;4.60;;;4.07;;
21681;SDS011;11002;48.256;10.084;2023-01-06T10:31:29;3.90;;;3.50;;
21681;SDS011;11002;48.256;10.084;2023-01-06T10:33:59;4.50;;;4.07;;
21681;SDS011;11002;48.256;10.084;2023-01-06T10:36:29;4.00;;;3.60;;
21681;SDS011;11002;48.256;10.084;2023-01-06T10:38:58;5.00;;;3.50;;
21681;SDS011;11002;48.256;10.084;2023-01-06T10:41:36;5.60;;;3.35;;
21681;SDS011;11002;48.256;10.084;2023-01-06T10:44:09;3.45;;;2.97;;
21681;SDS011;11002;48.256;10.084;2023-01-06T10:46:40;3.53;;;3.20;;
21681;SDS011;11002;48.256;10.084;2023-01-06T10:49:12;3.75;;;3.03;;
21681;SDS011;11002;48.256;10.084;2023-01-06T10:51:41;3.95;;;3.00;;
21681;SDS011;11002;48.256;10.084;2023-01-06T10:54:14;3.70;;;3.40;;
21681;SDS011;11002;48.256;10.084;2023-01-06T10:56:50;3.30;;;3.00;;
21681;SDS011;11002;48.256;10.084;2023-01-06T10:59:20;3.90;;;2.80;;
21681;SDS011;11002;48.256;10.084;2023-01-06T11:01:49;4.63;;;3.45;;
21681;SDS011;11002;48.256;10.084;2023-01-06T11:04:22;2.30;;;1.92;;
21681;SDS011;11002;48.256;10.084;2023-01-06T11:06:51;2.85;;;2.00;;
21681;SDS011;11002;48.256;10.084;2023-01-06T11:09:24;1.73;;;1.63;;
21681;SDS011;11002;48.256;10.084;2023-01-06T11:11:54;1.60;;;1.50;;
21681;SDS011;11002;48.256;10.084;2023-01-06T11:14:24;1.70;;;1.60;;
21681;SDS011;11002;48.256;10.084;2023-01-06T11:16:57;4.03;;;1.60;;
21681;SDS011;11002;48.256;10.084;2023-01-06T11:19:31;1.98;;;1.88;;
21681;SDS011;11002;48.256;10.084;2023-01-06T11:22:01;1.95;;;1.75;;
21681;SDS011;11002;48.256;10.084;2023-01-06T11:24:29;2.17;;;1.83;;
21681;SDS011;11002;48.256;10.084;2023-01-06T11:26:58;1.77;;;1.67;;
21681;SDS011;11002;48.256;10.084;2023-01-06T11:29:28;1.70;;;1.60;;
21681;SDS011;11002;48.256;10.084;2023-01-06T11:32:00;1.83;;;1.55;;
21681;SDS011;11002;48.256;10.084;2023-01-06T11:34:31;1.40;;;1.20;;
21681;SDS011;11002;48.256;10.084;2023-01-06T11:36:59;1.17;;;1.08;;
21681;SDS011;11002;48.256;10.084;2023-01-06T11:39:30;1.75;;;1.50;;
21681;SDS011;11002;48.256;10.084;2023-01-06T11:42:04;1.90;;;1.20;;
21681;SDS011;11002;48.256;10.084;2023-01-06T11:44:37;1.17;;;1.08;;
21681;SDS011;11002;48.256;10.084;2023-01-06T11:47:10;1.33;;;1.23;;
21681;SDS011;11002;48.256;10.084;2023-01-06T11:49:41;1.20;;;1.10;;
21681;SDS011;11002;48.256;10.084;2023-01-06T11:52:21;0.95;;;0.90;;
21681;SDS011;11002;48.256;10.084;2023-01-06T11:54:57;0.93;;;0.90;;
21681;SDS011;11002;48.256;10.084;2023-01-06T11:57:27;0.80;;;0.80;;
21681;SDS011;11002;48.256;10.084;2023-01-06T12:00:04;1.10;;;1.00;;
21681;SDS011;11002;48.256;10.084;2023-01-06T12:03:01;1.13;;;1.02;;
21681;SDS011;11002;48.256;10.084;2023-01-06T12:05:37;1.17;;;1.08;;
21681;SDS011;11002;48.256;10.084;2023-01-06T12:08:14;1.05;;;1.00;;
21681;SDS011;11002;48.256;10.084;2023-01-06T12:10:46;1.65;;;0.98;;
21681;SDS011;11002;48.256;10.084;2023-01-06T12:13:17;1.05;;;0.90;;
21681;SDS011;11002;48.256;10.084;2023-01-06T12:15:45;0.95;;;0.93;;
21681;SDS011;11002;48.256;10.084;2023-01-06T12:18:22;1.13;;;1.02;;
21681;SDS011;11002;48.256;10.084;2023-01-06T12:20:55;1.50;;;1.05;;
21681;SDS011;11002;48.256;10.084;2023-01-06T12:23:26;1.13;;;1.00;;
21681;SDS011;11002;48.256;10.084;2023-01-06T12:25:57;1.02;;;1.00;;
21681;SDS011;11002;48.256;10.084;2023-01-06T12:28:29;1.10;;;1.00;;
21681;SDS011;11002;48.256;10.084;2023-01-06T12:31:00;1.20;;;1.10;;
21681;SDS011;11002;48.256;10.084;2023-01-06T12:33:37;1.00;;;0.88;;
21681;SDS011;11002;48.256;10.084;2023-01-06T12:36:10;1.10;;;1.10;;
21681;SDS011;11002;48.256;10.084;2023-01-06T12:38:46;1.25;;;1.15;;
21681;SDS011;11002;48.256;10.084;2023-01-06T12:41:19;1.02;;;1.00;;
21681;SDS011;11002;48.256;10.084;2023-01-06T12:43:53;0.80;;;0.80;;
21681;SDS011;11002;48.256;10.084;2023-01-06T12:46:28;0.80;;;0.80;;
21681;SDS011;11002;48.256;10.084;2023-01-06T12:49:02;0.95;;;0.80;;
21681;SDS011;11002;48.256;10.084;2023-01-06T12:51:33;0.80;;;0.80;;
21681;SDS011;11002;48.256;10.084;2023-01-06T12:54:05;0.70;;;0.70;;
21681;SDS011;11002;48.256;10.084;2023-01-06T12:56:46;0.75;;;0.75;;
21681;SDS011;11002;48.256;10.084;2023-01-06T12:59:28;0.60;;;0.60;;
21681;SDS011;11002;48.256;10.084;2023-01-06T13:02:11;0.85;;;0.85;;
21681;SDS011;11002;48.256;10.084;2023-01-06T13:05:02;0.85;;;0.77;;
21681;SDS011;11002;48.256;10.084;2023-01-06T13:07:46;0.90;;;0.90;;
21681;SDS011;11002;48.256;10.084;2023-01-06T13:10:24;3.95;;;0.85;;
21681;SDS011;11002;48.256;10.084;2023-01-06T13:13:00;0.90;;;0.90;;
21681;SDS011;11002;48.256;10.084;2023-01-06T13:15:49;1.00;;;0.90;;
21681;SDS011;11002;48.256;10.084;2023-01-06T13:18:21;1.63;;;1.00;;
21681;SDS011;11002;48.256;10.084;2023-01-06T13:20:57;1.60;;;0.98;;
21681;SDS011;11002;48.256;10.084;2023-01-06T13:23:37;1.80;;;1.10;;
21681;SDS011;11002;48.256;10.084;2023-01-06T13:26:20;1.60;;;1.50;;
21681;SDS011;11002;48.256;10.084;2023-01-06T13:29:00;0.90;;;0.90;;
21681;SDS011;11002;48.256;10.084;2023-01-06T13:31:37;1.10;;;1.00;;
21681;SDS011;11002;48.256;10.084;2023-01-06T13:37:35;1.30;;;1.20;;
21681;SDS011;11002;48.256;10.084;2023-01-06T13:40:07;1.40;;;1.27;;
21681;SDS011;11002;48.256;10.084;2023-01-06T13:42:40;1.05;;;1.05;;
21681;SDS011;11002;48.256;10.084;2023-01-06T13:45:13;3.80;;;1.25;;
21681;SDS011;11002;48.256;10.084;2023-01-06T13:47:44;1.80;;;1.20;;
21681;SDS011;11002;48.256;10.084;2023-01-06T13:50:14;1.40;;;1.10;;
21681;SDS011;11002;48.256;10.084;2023-01-06T13:52:46;1.33;;;1.08;;
21681;SDS011;11002;48.256;10.084;2023-01-06T13:55:21;1.52;;;0.93;;
21681;SDS011;11002;48.256;10.084;2023-01-06T13:57:51;1.20;;;1.10;;
21681;SDS011;11002;48.256;10.084;2023-01-06T14:00:19;1.00;;;0.90;;
21681;SDS011;11002;48.256;10.084;2023-01-06T14:03:01;1.27;;;1.17;;
21681;SDS011;11002;48.256;10.084;2023-01-06T14:05:55;1.23;;;0.80;;
21681;SDS011;11002;48.256;10.084;2023-01-06T14:08:29;1.48;;;1.00;;
21681;SDS011;11002;48.256;10.084;2023-01-06T14:11:01;1.02;;;0.93;;
21681;SDS011;11002;48.256;10.084;2023-01-06T14:13:32;1.08;;;0.98;;
21681;SDS011;11002;48.256;10.084;2023-01-06T14:16:06;1.20;;;1.10;;
21681;SDS011;11002;48.256;10.084;2023-01-06T14:18:37;1.10;;;1.00;;
21681;SDS011;11002;48.256;10.084;2023-01-06T14:21:14;5.20;;;4.70;;
21681;SDS011;11002;48.256;10.084;2023-01-06T14:23:52;2.90;;;2.60;;
21681;SDS011;11002;48.256;10.084;2023-01-06T14:32:56;1.50;;;1.30;;
21681;SDS011;11002;48.256;10.084;2023-01-06T14:35:34;1.80;;;1.33;;
21681;SDS011;11002;48.256;10.084;2023-01-06T14:38:12;1.20;;;1.10;;
21681;SDS011;11002;48.256;10.084;2023-01-06T14:40:48;1.30;;;1.20;;
21681;SDS011;11002;48.256;10.084;2023-01-06T14:43:26;1.73;;;1.30;;
21681;SDS011;11002;48.256;10.084;2023-01-06T14:46:11;1.33;;;1.20;;
21681;SDS011;11002;48.256;10.084;2023-01-06T14:48:44;0.95;;;0.90;;
21681;SDS011;11002;48.256;10.084;2023-01-06T14:53:52;2.10;;;1.30;;
21681;SDS011;11002;48.256;10.084;2023-01-06T14:56:24;1.70;;;1.55;;
21681;SDS011;11002;48.256;10.084;2023-01-06T14:59:01;1.45;;;1.20;;
21681;SDS011;11002;48.256;10.084;2023-01-06T15:01:36;1.30;;;1.20;;
21681;SDS011;11002;48.256;10.084;2023-01-06T15:04:06;1.50;;;1.40;;
21681;SDS011;11002;48.256;10.084;2023-01-06T15:06:58;2.13;;;1.55;;
21681;SDS011;11002;48.256;10.084;2023-01-06T15:09:27;1.50;;;1.40;;
21681;SDS011;11002;48.256;10.084;2023-01-06T15:11:55;1.63;;;1.35;;
21681;SDS011;11002;48.256;10.084;2023-01-06T15:14:23;1.45;;;1.35;;
21681;SDS011;11002;48.256;10.084;2023-01-06T15:16:51;1.30;;;1.20;;